Terminal Aerodrome Forecast
Issued by NWS Jackson, KY

Home | Current Version | Previous Version | Text Only | Print | Product List | Glossary On
Versions: 1 2 3 4 5 6 7 8 9 10 11 12 13 14 15
000
FTUS43 KJKL 260703 AAA
TAFJKL
TAF AMD
KJKL 260703Z 2607/2706 00000KT 1/4SM FG VV001 BKN250
     FM261100 00000KT 2SM BR VV005 BKN090
     FM261300 00000KT P6SM SCT015 BKN090
     FM261600 00000KT P6SM VCTS SCT050CB BKN090
     FM270000 00000KT P6SM FEW050 BKN250=

USA.gov is the U.S. government's official web portal to all federal, state and local government web resources and services.